createdAt,value
2022-09-11T00:00:34.202Z,101666.84
2022-09-11T00:01:36.576Z,101666.34
2022-09-11T00:02:38.365Z,101662.81
2022-09-11T00:03:42.754Z,101668.03
2022-09-11T00:04:44.619Z,101661.78
2022-09-11T00:05:46.604Z,101654.69
2022-09-11T00:06:48.642Z,101663.63
2022-09-11T00:07:50.863Z,101662.25
2022-09-11T00:08:59.753Z,101662.09
2022-09-11T00:10:01.419Z,101659.22
2022-09-11T00:11:07.634Z,101657.53
2022-09-11T00:12:10.201Z,101665.50
2022-09-11T00:13:15.513Z,101655.81
2022-09-11T00:14:17.235Z,101657.53
2022-09-11T00:15:18.939Z,101659.56
2022-09-11T00:16:27.130Z,101658.72
2022-09-11T00:17:28.919Z,101652.44
2022-09-11T00:18:30.716Z,101655.16
2022-09-11T00:19:32.459Z,101652.81
2022-09-11T00:20:35.339Z,101654.50
2022-09-11T00:21:37.139Z,101651.78
2022-09-11T00:22:39.655Z,101652.81
2022-09-11T00:23:41.455Z,101643.50
2022-09-11T00:24:43.312Z,101651.13
2022-09-11T00:25:46.435Z,101651.31
2022-09-11T00:26:48.380Z,101638.44
2022-09-11T00:27:51.979Z,101642.47
2022-09-11T00:28:55.286Z,101642.84
2022-09-11T00:29:57.070Z,101649.44
2022-09-11T00:31:05.280Z,101645.19
2022-09-11T00:32:07.011Z,101646.91
2022-09-11T00:33:09.714Z,101648.75
2022-09-11T00:34:11.831Z,101646.03
2022-09-11T00:35:14.130Z,101644.38
2022-09-11T00:36:21.546Z,101649.94
2022-09-11T00:37:23.200Z,101649.63
2022-09-11T00:38:29.854Z,101639.97
2022-09-11T00:39:31.506Z,101644.38
2022-09-11T00:40:33.274Z,101640.13
2022-09-11T00:41:38.414Z,101635.25
2022-09-11T00:42:40.172Z,101642.00
2022-09-11T00:43:56.932Z,101642.66
2022-09-11T00:45:01.915Z,101638.28
2022-09-11T00:46:05.850Z,101635.56
2022-09-11T00:47:09.813Z,101627.28
2022-09-11T00:48:17.903Z,101634.91
2022-09-11T00:49:26.999Z,101632.19
2022-09-11T00:50:31.533Z,101637.59
2022-09-11T00:51:37.896Z,101630.50
2022-09-11T00:52:52.473Z,101627.13
2022-09-11T00:53:58.086Z,101637.59
2022-09-11T00:55:04.250Z,101635.06
2022-09-11T00:56:09.802Z,101622.53
2022-09-11T00:57:11.750Z,101617.00
2022-09-11T00:58:19.101Z,101621.03
2022-09-11T00:59:25.283Z,101624.56
2022-09-11T01:00:27.159Z,101632.91
2022-09-11T01:01:28.910Z,101632.91
2022-09-11T01:02:33.902Z,101629.53
2022-09-11T01:03:35.883Z,101625.28
2022-09-11T01:04:37.876Z,101624.09
2022-09-11T01:05:41.640Z,101628.84
2022-09-11T01:06:43.956Z,101626.16
2022-09-11T01:07:47.612Z,101631.56
2022-09-11T01:08:49.334Z,101628.84
2022-09-11T01:09:51.836Z,101630.69
2022-09-11T01:11:14.615Z,101628.19
2022-09-11T01:12:23.847Z,101633.06
2022-09-11T01:13:43.978Z,101639.34
2022-09-11T01:14:54.903Z,101630.84
2022-09-11T01:16:06.020Z,101637.81
2022-09-11T01:17:26.072Z,101638.31
2022-09-11T01:18:51.791Z,101619.03
2022-09-11T01:20:17.715Z,101636.28
2022-09-11T01:21:52.568Z,101625.44
2022-09-11T01:23:22.258Z,101630.50
2022-09-11T01:24:41.874Z,101595.03
2022-09-11T01:26:22.430Z,101625.91
2022-09-11T01:27:51.044Z,101626.56
2022-09-11T01:29:02.941Z,101611.06
2022-09-11T01:30:11.680Z,101627.84
2022-09-11T01:31:19.343Z,101623.78
2022-09-11T01:32:24.808Z,101623.13
2022-09-11T01:33:46.081Z,101624.16
2022-09-11T01:35:06.971Z,101620.72
2022-09-11T01:36:18.609Z,101623.13
2022-09-11T01:37:29.195Z,101618.72
2022-09-11T01:39:09.389Z,101627.69
2022-09-11T01:40:24.359Z,101615.31
2022-09-11T01:41:41.478Z,101617.34
2022-09-11T01:42:46.422Z,101617.72
2022-09-11T01:44:14.643Z,101612.97
2022-09-11T01:45:17.220Z,101616.84
2022-09-11T01:46:23.228Z,101611.94
2022-09-11T01:47:29.239Z,101611.28
2022-09-11T01:48:49.456Z,101615.31
2022-09-11T01:49:56.335Z,101615.66
2022-09-11T01:51:04.491Z,101609.44
2022-09-11T01:52:12.981Z,101608.75
2022-09-11T01:53:22.154Z,101609.94
2022-09-11T01:54:29.819Z,101603.50
2022-09-11T01:55:40.339Z,101609.94
2022-09-11T01:56:48.786Z,101607.06
2022-09-11T01:57:57.191Z,101608.25
2022-09-11T01:59:04.510Z,101609.94
2022-09-11T02:00:10.930Z,101602.84
2022-09-11T02:01:30.288Z,101607.22
2022-09-11T02:02:40.312Z,101603.19
2022-09-11T02:03:50.083Z,101602.16
2022-09-11T02:05:00.666Z,101598.63
2022-09-11T02:06:12.154Z,101605.53
2022-09-11T02:07:21.898Z,101606.41
2022-09-11T02:08:40.178Z,101603.50
2022-09-11T02:09:51.636Z,101595.06
2022-09-11T02:11:05.427Z,101590.19
2022-09-11T02:12:13.067Z,101602.84
2022-09-11T02:13:18.732Z,101600.31
2022-09-11T02:14:30.190Z,101592.91
2022-09-11T02:15:39.863Z,101602.34
2022-09-11T02:17:01.026Z,101603.84
2022-09-11T02:18:18.165Z,101590.66
2022-09-11T02:19:24.619Z,101606.56
2022-09-11T02:20:28.453Z,101594.75
2022-09-11T02:21:32.474Z,101594.41
2022-09-11T02:22:34.523Z,101592.22
2022-09-11T02:23:36.235Z,101596.63
2022-09-11T02:24:38.437Z,101591.38
2022-09-11T02:25:40.530Z,101602.19
2022-09-11T02:26:50.264Z,101588.81
2022-09-11T02:27:52.231Z,101581.25
2022-09-11T02:28:54.718Z,101571.13
2022-09-11T02:29:58.147Z,101595.09
2022-09-11T02:31:03.528Z,101596.78
2022-09-11T02:32:06.149Z,101584.25
2022-09-11T02:33:27.380Z,101583.41
2022-09-11T02:34:34.267Z,101584.78
2022-09-11T02:35:46.332Z,101592.03
2022-09-11T02:37:03.278Z,101591.34
2022-09-11T02:38:22.099Z,101594.03
2022-09-11T02:39:35.749Z,101593.38
2022-09-11T02:40:53.168Z,101591.69
2022-09-11T02:42:22.544Z,101589.97
2022-09-11T02:43:31.231Z,101599.47
2022-09-11T02:44:37.928Z,101591.69
2022-09-11T02:45:48.368Z,101597.44
2022-09-11T02:47:19.282Z,101589.31
2022-09-11T02:48:43.790Z,101597.09
2022-09-11T02:49:59.664Z,101595.06
2022-09-11T02:51:17.720Z,101593.56
2022-09-11T02:52:23.202Z,101596.28
2022-09-11T02:53:27.880Z,101592.22
2022-09-11T02:54:55.750Z,101596.28
2022-09-11T02:56:04.252Z,101592.03
2022-09-11T02:57:23.938Z,101590.34
2022-09-11T02:58:30.583Z,101595.09
2022-09-11T02:59:42.282Z,101588.00
2022-09-11T03:00:44.462Z,101587.13
2022-09-11T03:01:52.259Z,101585.78
2022-09-11T03:02:57.806Z,101585.78
2022-09-11T03:03:59.660Z,101584.66
2022-09-11T03:05:01.572Z,101593.25
2022-09-11T03:06:03.593Z,101591.75
2022-09-11T03:07:05.839Z,101589.03
2022-09-11T03:08:07.852Z,101582.78
2022-09-11T03:09:10.262Z,101588.38
2022-09-11T03:10:12.862Z,101568.25
2022-09-11T03:11:15.491Z,101588.38
2022-09-11T03:12:19.475Z,101585.66
2022-09-11T03:13:24.883Z,101577.19
2022-09-11T03:14:26.555Z,101581.09
2022-09-11T03:15:28.542Z,101584.66
2022-09-11T03:16:30.734Z,101589.41
2022-09-11T03:17:33.435Z,101575.81
2022-09-11T03:18:35.237Z,101581.59
2022-09-11T03:19:37.037Z,101590.38
2022-09-11T03:20:39.268Z,101593.09
2022-09-11T03:21:43.047Z,101591.22
2022-09-11T03:22:45.128Z,101588.50
2022-09-11T03:23:47.168Z,101587.69
2022-09-11T03:24:48.946Z,101591.41
2022-09-11T03:25:51.439Z,101585.31
2022-09-11T03:26:53.387Z,101575.66
2022-09-11T03:27:55.192Z,101576.19
2022-09-11T03:28:57.164Z,101574.13
2022-09-11T03:29:59.702Z,101589.53
2022-09-11T03:31:01.705Z,101576.69
2022-09-11T03:32:05.159Z,101590.38
2022-09-11T03:33:08.051Z,101585.13
2022-09-11T03:34:10.550Z,101575.81
2022-09-11T03:35:12.458Z,101571.63
2022-09-11T03:36:14.552Z,101579.38
2022-09-11T03:37:16.882Z,101569.06
2022-09-11T03:38:18.662Z,101582.59
2022-09-11T03:39:20.347Z,101588.84
2022-09-11T03:40:22.265Z,101584.66
2022-09-11T03:41:25.390Z,101555.09
2022-09-11T03:42:27.947Z,101579.03
2022-09-11T03:43:31.050Z,101578.22
2022-09-11T03:44:34.600Z,101578.03
2022-09-11T03:45:36.438Z,101580.94
2022-09-11T03:46:39.106Z,101578.22
2022-09-11T03:47:42.942Z,101580.94
2022-09-11T03:48:47.075Z,101573.81
2022-09-11T03:49:48.875Z,101560.81
2022-09-11T03:50:51.213Z,101581.94
2022-09-11T03:51:53.210Z,101573.81
2022-09-11T03:52:55.606Z,101577.72
2022-09-11T03:53:59.837Z,101582.97
2022-09-11T03:55:04.828Z,101575.66
2022-09-11T03:56:06.674Z,101547.81
2022-09-11T03:57:15.225Z,101564.69
2022-09-11T03:58:19.555Z,101577.72
2022-09-11T03:59:21.961Z,101583.63
2022-09-11T04:00:24.611Z,101573.81
2022-09-11T04:01:29.946Z,101573.81
2022-09-11T04:02:31.874Z,101577.53
2022-09-11T04:03:33.715Z,101571.28
2022-09-11T04:04:36.995Z,101575.00
2022-09-11T04:05:39.236Z,101575.81
2022-09-11T04:06:41.031Z,101565.34
2022-09-11T04:07:42.798Z,101560.28
2022-09-11T04:08:45.507Z,101575.00
2022-09-11T04:09:47.255Z,101575.00
2022-09-11T04:10:49.014Z,101568.91
2022-09-11T04:11:50.769Z,101569.75
2022-09-11T04:13:01.023Z,101578.53
2022-09-11T04:14:03.631Z,101569.59
2022-09-11T04:15:06.224Z,101575.16
2022-09-11T04:16:14.661Z,101576.19
2022-09-11T04:17:19.211Z,101570.75
2022-09-11T04:18:21.295Z,101561.66
2022-09-11T04:19:23.802Z,101565.03
2022-09-11T04:20:25.662Z,101573.31
2022-09-11T04:21:27.909Z,101561.66
2022-09-11T04:22:31.594Z,101577.03
2022-09-11T04:23:34.239Z,101574.47
2022-09-11T04:24:36.095Z,101574.47
2022-09-11T04:25:39.036Z,101569.63
2022-09-11T04:26:41.655Z,101554.56
2022-09-11T04:27:52.211Z,101574.31
2022-09-11T04:28:54.044Z,101578.72
2022-09-11T04:29:55.747Z,101570.75
2022-09-11T04:31:03.627Z,101556.59
2022-09-11T04:32:07.555Z,101566.03
2022-09-11T04:33:11.300Z,101573.47
2022-09-11T04:34:13.163Z,101563.53
2022-09-11T04:35:14.942Z,101573.66
2022-09-11T04:36:26.156Z,101575.34
2022-09-11T04:37:29.123Z,101564.00
2022-09-11T04:38:30.792Z,101572.81
2022-09-11T04:39:32.902Z,101572.13
2022-09-11T04:40:35.239Z,101577.53
2022-09-11T04:41:37.142Z,101573.00
2022-09-11T04:42:39.192Z,101573.81
2022-09-11T04:43:41.913Z,101574.00
2022-09-11T04:44:49.346Z,101573.81
2022-09-11T04:45:51.058Z,101582.78
2022-09-11T04:46:53.303Z,101578.56
2022-09-11T04:47:57.623Z,101576.53
2022-09-11T04:48:59.462Z,101581.09
2022-09-11T04:50:02.075Z,101580.25
2022-09-11T04:51:06.768Z,101533.66
2022-09-11T04:52:08.616Z,101572.13
2022-09-11T04:53:10.419Z,101579.56
2022-09-11T04:54:16.766Z,101571.47
2022-09-11T04:55:19.922Z,101581.94
2022-09-11T04:56:21.658Z,101571.31
2022-09-11T04:57:23.768Z,101568.75
2022-09-11T04:58:26.020Z,101567.06
2022-09-11T04:59:28.146Z,101578.09
2022-09-11T05:00:35.298Z,101567.72
2022-09-11T05:01:37.110Z,101545.13
2022-09-11T05:02:40.705Z,101570.44
2022-09-11T05:03:45.975Z,101570.44
2022-09-11T05:04:47.809Z,101577.72
2022-09-11T05:05:49.628Z,101565.91
2022-09-11T05:06:51.411Z,101576.03
2022-09-11T05:07:53.880Z,101583.31
2022-09-11T05:08:56.791Z,101566.75
2022-09-11T05:09:58.745Z,101577.88
2022-09-11T05:11:00.920Z,101580.59
2022-09-11T05:12:03.186Z,101573.50
2022-09-11T05:13:08.365Z,101568.28
2022-09-11T05:14:10.186Z,101561.69
2022-09-11T05:15:12.927Z,101570.47
2022-09-11T05:16:17.281Z,101573.16
2022-09-11T05:17:19.094Z,101580.59
2022-09-11T05:18:22.149Z,101590.59
2022-09-11T05:19:26.385Z,101582.16
2022-09-11T05:20:28.204Z,101584.31
2022-09-11T05:21:32.017Z,101588.03
2022-09-11T05:22:33.778Z,101586.19
2022-09-11T05:23:36.943Z,101588.03
2022-09-11T05:24:39.561Z,101582.63
2022-09-11T05:25:41.741Z,101591.78
2022-09-11T05:26:43.639Z,101575.53
2022-09-11T05:27:47.139Z,101582.97
2022-09-11T05:28:57.587Z,101575.41
2022-09-11T05:29:59.938Z,101582.47
2022-09-11T05:31:12.448Z,101587.22
2022-09-11T05:32:14.397Z,101580.59
2022-09-11T05:33:16.647Z,101580.78
2022-09-11T05:34:18.614Z,101582.63
2022-09-11T05:35:21.149Z,101575.53
2022-09-11T05:36:23.307Z,101572.81
2022-09-11T05:37:25.621Z,101584.66
2022-09-11T05:38:28.046Z,101586.34
2022-09-11T05:39:29.795Z,101590.94
2022-09-11T05:40:32.459Z,101587.38
2022-09-11T05:41:34.554Z,101585.69
2022-09-11T05:42:36.299Z,101591.97
2022-09-11T05:43:39.274Z,101594.66
2022-09-11T05:44:40.990Z,101589.25
2022-09-11T05:45:45.761Z,101585.69
2022-09-11T05:46:48.699Z,101584.00
2022-09-11T05:47:53.167Z,101583.84
2022-09-11T05:48:59.113Z,101585.53
2022-09-11T05:50:03.289Z,101590.94
2022-09-11T05:51:12.925Z,101567.78
2022-09-11T05:52:14.935Z,101590.75
2022-09-11T05:53:17.493Z,101576.91
2022-09-11T05:54:19.513Z,101580.13
2022-09-11T05:55:21.681Z,101584.66
2022-09-11T05:56:25.182Z,101587.72
2022-09-11T05:57:31.093Z,101583.66
2022-09-11T05:58:33.002Z,101589.06
2022-09-11T05:59:34.878Z,101583.84
2022-09-11T06:00:37.711Z,101584.84
2022-09-11T06:01:39.624Z,101588.56
2022-09-11T06:02:50.969Z,101582.97
2022-09-11T06:03:53.439Z,101584.84
2022-09-11T06:04:57.032Z,101585.69
2022-09-11T06:06:01.450Z,101591.28
2022-09-11T06:07:03.741Z,101577.41
2022-09-11T06:08:11.136Z,101588.38
2022-09-11T06:09:15.714Z,101586.34
2022-09-11T06:10:18.074Z,101574.88
2022-09-11T06:11:22.118Z,101580.94
2022-09-11T06:12:26.220Z,101583.31
2022-09-11T06:13:32.731Z,101582.28
2022-09-11T06:14:36.038Z,101582.78
2022-09-11T06:15:47.245Z,101560.97
2022-09-11T06:16:49.956Z,101571.47
2022-09-11T06:17:51.823Z,101581.25
2022-09-11T06:18:54.364Z,101588.19
2022-09-11T06:19:56.597Z,101573.81
2022-09-11T06:21:00.069Z,101584.81
2022-09-11T06:22:03.353Z,101593.25
2022-09-11T06:23:11.371Z,101589.38
2022-09-11T06:24:14.032Z,101580.88
2022-09-11T06:25:15.945Z,101575.50
2022-09-11T06:26:21.428Z,101590.19
2022-09-11T06:27:23.306Z,101589.31
2022-09-11T06:28:25.478Z,101590.97
2022-09-11T06:29:31.167Z,101599.78
2022-09-11T06:30:34.739Z,101596.34
2022-09-11T06:31:36.470Z,101590.78
2022-09-11T06:32:38.274Z,101590.63
2022-09-11T06:33:41.133Z,101581.47
2022-09-11T06:34:42.947Z,101572.69
2022-09-11T06:35:58.182Z,101582.63
2022-09-11T06:37:00.083Z,101590.53
2022-09-11T06:38:02.942Z,101594.72
2022-09-11T06:39:05.411Z,101590.00
2022-09-11T06:40:09.515Z,101576.84
2022-09-11T06:41:14.991Z,101587.59
2022-09-11T06:42:19.058Z,101594.19
2022-09-11T06:43:21.599Z,101589.63
2022-09-11T06:44:24.624Z,101597.22
2022-09-11T06:45:30.366Z,101600.44
2022-09-11T06:46:32.249Z,101586.72
2022-09-11T06:47:35.490Z,101599.91
2022-09-11T06:48:38.386Z,101592.44
2022-09-11T06:49:41.124Z,101591.22
2022-09-11T06:51:14.302Z,101594.72
2022-09-11T06:52:17.523Z,101588.94
2022-09-11T06:53:28.818Z,101592.31
2022-09-11T06:54:30.660Z,101566.34
2022-09-11T06:55:33.803Z,101572.06
2022-09-11T06:56:42.118Z,101591.94
2022-09-11T06:57:44.346Z,101597.00
2022-09-11T06:58:50.515Z,101600.38
2022-09-11T06:59:52.818Z,101594.97
2022-09-11T07:00:57.289Z,101586.53
2022-09-11T07:02:00.899Z,101580.44
2022-09-11T07:03:04.531Z,101587.31
2022-09-11T07:04:06.486Z,101589.66
2022-09-11T07:05:10.934Z,101593.22
2022-09-11T07:06:15.446Z,101593.03
2022-09-11T07:07:19.855Z,101591.00
2022-09-11T07:08:24.876Z,101592.84
2022-09-11T07:09:27.310Z,101594.34
2022-09-11T07:10:33.030Z,101583.50
2022-09-11T07:11:36.471Z,101586.03
2022-09-11T07:12:38.983Z,101587.75
2022-09-11T07:13:42.063Z,101586.03
2022-09-11T07:14:43.801Z,101570.97
2022-09-11T07:15:59.970Z,101580.94
2022-09-11T07:17:01.703Z,101581.59
2022-09-11T07:18:04.058Z,101581.75
2022-09-11T07:19:09.755Z,101583.63
2022-09-11T07:20:13.510Z,101571.94
2022-09-11T07:21:21.610Z,101585.31
2022-09-11T07:22:26.919Z,101576.81
2022-09-11T07:23:29.284Z,101581.25
2022-09-11T07:24:31.293Z,101584.97
2022-09-11T07:25:38.177Z,101564.34
2022-09-11T07:26:41.489Z,101577.00
2022-09-11T07:27:59.167Z,101581.72
2022-09-11T07:29:01.390Z,101583.59
2022-09-11T07:30:04.454Z,101582.94
2022-09-11T07:31:19.974Z,101576.66
2022-09-11T07:32:22.742Z,101562.25
2022-09-11T07:33:24.479Z,101574.09
2022-09-11T07:34:28.198Z,101580.03
2022-09-11T07:35:31.829Z,101576.50
2022-09-11T07:36:35.197Z,101582.94
2022-09-11T07:37:39.699Z,101588.16
2022-09-11T07:38:47.030Z,101585.66
2022-09-11T07:39:50.393Z,101581.72
2022-09-11T07:40:56.676Z,101581.72
2022-09-11T07:41:58.494Z,101579.19
2022-09-11T07:43:03.703Z,101566.88
2022-09-11T07:44:06.691Z,101568.75
2022-09-11T07:45:10.309Z,101580.88
2022-09-11T07:46:13.052Z,101572.78
2022-09-11T07:47:14.922Z,101584.63
2022-09-11T07:48:19.684Z,101572.13
2022-09-11T07:49:21.681Z,101583.75
2022-09-11T07:50:24.359Z,101587.34
2022-09-11T07:51:27.040Z,101579.53
2022-09-11T07:52:31.956Z,101597.16
2022-09-11T07:53:58.026Z,101583.03
2022-09-11T07:55:01.534Z,101583.88
2022-09-11T07:56:07.691Z,101585.94
2022-09-11T07:57:09.474Z,101576.81
2022-09-11T07:58:11.313Z,101572.78
2022-09-11T07:59:13.186Z,101580.88
2022-09-11T08:00:18.794Z,101581.72
2022-09-11T08:01:29.812Z,101580.88
2022-09-11T08:02:31.993Z,101583.59
2022-09-11T08:03:35.519Z,101579.19
2022-09-11T08:04:38.650Z,101591.75
2022-09-11T08:05:40.999Z,101588.16
2022-09-11T08:06:46.505Z,101587.66
2022-09-11T08:07:56.459Z,101564.53
2022-09-11T08:09:01.831Z,101591.75
2022-09-11T08:10:26.179Z,101589.03
2022-09-11T08:11:30.293Z,101593.06
2022-09-11T08:12:32.530Z,101589.69
2022-09-11T08:13:34.710Z,101582.94
2022-09-11T08:14:37.073Z,101586.47
2022-09-11T08:15:48.277Z,101586.31
2022-09-11T08:16:50.385Z,101592.56
2022-09-11T08:17:54.372Z,101572.78
2022-09-11T08:18:57.085Z,101588.00
2022-09-11T08:19:58.823Z,101579.19
2022-09-11T08:21:09.654Z,101575.13
2022-09-11T08:22:14.386Z,101584.25
2022-09-11T08:23:20.059Z,101575.81
2022-09-11T08:24:21.906Z,101575.47
2022-09-11T08:25:28.639Z,101580.88
2022-09-11T08:26:31.860Z,101579.84
2022-09-11T08:27:35.678Z,101577.53
2022-09-11T08:28:39.051Z,101573.78
2022-09-11T08:29:40.800Z,101579.19
2022-09-11T08:30:42.816Z,101577.31
2022-09-11T08:31:45.383Z,101579.19
2022-09-11T08:32:47.974Z,101573.78
2022-09-11T08:33:49.751Z,101575.47
2022-09-11T08:34:51.854Z,101577.31
2022-09-11T08:35:54.182Z,101576.50
2022-09-11T08:36:56.302Z,101573.78
2022-09-11T08:38:00.474Z,101569.19
2022-09-11T08:39:02.886Z,101566.66
2022-09-11T08:40:11.319Z,101562.41
2022-09-11T08:41:35.149Z,101574.59
2022-09-11T08:42:41.744Z,101567.63
2022-09-11T08:43:56.756Z,101561.03
2022-09-11T08:45:00.664Z,101571.16
2022-09-11T08:46:14.903Z,101565.56
2022-09-11T08:47:25.026Z,101571.34
2022-09-11T08:49:08.177Z,101564.38
2022-09-11T08:50:22.166Z,101560.97
2022-09-11T08:51:26.299Z,101571.28
2022-09-11T08:52:28.816Z,101568.28
2022-09-11T08:53:32.686Z,101571.16
2022-09-11T08:54:38.314Z,101574.06
2022-09-11T08:55:49.363Z,101558.66
2022-09-11T08:57:01.249Z,101566.75
2022-09-11T08:58:21.118Z,101564.69
2022-09-11T08:59:44.715Z,101560.78
2022-09-11T09:00:46.433Z,101561.44
2022-09-11T09:02:25.511Z,101563.78
2022-09-11T09:04:02.758Z,101539.47
2022-09-11T09:05:16.555Z,101558.84
2022-09-11T09:06:21.643Z,101555.00
2022-09-11T09:07:34.914Z,101557.91
2022-09-11T09:09:01.560Z,101554.81
2022-09-11T09:10:27.371Z,101558.19
2022-09-11T09:11:53.227Z,101558.19
2022-09-11T09:13:10.055Z,101554.63
2022-09-11T09:14:25.169Z,101557.34
2022-09-11T09:15:38.392Z,101554.16
2022-09-11T09:16:58.090Z,101556.69
2022-09-11T09:18:08.809Z,101552.28
2022-09-11T09:19:17.447Z,101559.75
2022-09-11T09:20:29.950Z,101559.94
2022-09-11T09:21:39.994Z,101551.13
2022-09-11T09:22:48.067Z,101550.47
2022-09-11T09:23:54.933Z,101555.53
2022-09-11T09:25:11.956Z,101562.84
2022-09-11T09:26:18.962Z,101561.81
2022-09-11T09:27:33.819Z,101557.22
2022-09-11T09:28:45.018Z,101555.38
2022-09-11T09:29:52.647Z,101556.75
2022-09-11T09:31:00.511Z,101554.72
2022-09-11T09:32:08.243Z,101553.69
2022-09-11T09:33:15.665Z,101554.72
2022-09-11T09:34:22.054Z,101549.94
2022-09-11T09:35:29.320Z,101554.72
2022-09-11T09:36:37.748Z,101545.91
2022-09-11T09:37:40.751Z,101548.41
2022-09-11T09:38:43.531Z,101538.31
2022-09-11T09:39:46.410Z,101544.59
2022-09-11T09:41:12.947Z,101549.78
2022-09-11T09:42:37.395Z,101549.41
2022-09-11T09:44:18.970Z,101545.28
2022-09-11T09:45:31.423Z,101553.22
2022-09-11T09:46:36.273Z,101544.63
2022-09-11T09:47:46.851Z,101540.94
2022-09-11T09:48:49.475Z,101549.56
2022-09-11T09:49:52.489Z,101532.72
2022-09-11T09:50:54.471Z,101537.94
2022-09-11T09:52:03.549Z,101544.69
2022-09-11T09:53:27.663Z,101529.63
2022-09-11T09:54:34.152Z,101543.13
2022-09-11T09:55:38.952Z,101543.31
2022-09-11T09:56:43.236Z,101537.88
2022-09-11T09:57:45.257Z,101549.56
2022-09-11T09:59:01.174Z,101539.75
2022-09-11T10:00:09.464Z,101541.44
2022-09-11T10:01:44.157Z,101544.25
2022-09-11T10:02:58.640Z,101546.13
2022-09-11T10:04:32.715Z,101546.22
2022-09-11T10:05:41.694Z,101542.00
2022-09-11T10:06:48.937Z,101542.38
2022-09-11T10:07:57.193Z,101543.59
2022-09-11T10:09:02.783Z,101536.28
2022-09-11T10:10:05.632Z,101535.63
2022-09-11T10:11:12.261Z,101505.81
2022-09-11T10:12:21.802Z,101514.09
2022-09-11T10:13:28.362Z,101532.91
2022-09-11T10:16:20.091Z,101535.16
2022-09-11T10:17:35.326Z,101528.44
2022-09-11T10:18:45.423Z,101534.88
2022-09-11T10:19:47.177Z,101531.34
2022-09-11T10:20:49.095Z,101537.97
2022-09-11T10:21:51.557Z,101527.69
2022-09-11T10:22:55.137Z,101531.88
2022-09-11T10:24:02.711Z,101526.00
2022-09-11T10:25:14.366Z,101528.16
2022-09-11T10:26:43.730Z,101527.41
2022-09-11T10:27:54.098Z,101520.94
2022-09-11T10:29:01.284Z,101515.63
2022-09-11T10:30:04.313Z,101520.28
2022-09-11T10:31:06.884Z,101506.34
2022-09-11T10:32:17.151Z,101522.34
2022-09-11T10:33:30.967Z,101519.63
2022-09-11T10:34:40.695Z,101523.00
2022-09-11T10:35:51.276Z,101525.72
2022-09-11T10:36:55.355Z,101525.72
2022-09-11T10:38:18.122Z,101523.28
2022-09-11T10:39:21.863Z,101518.06
2022-09-11T10:40:23.735Z,101524.50
2022-09-11T10:41:27.730Z,101521.16
2022-09-11T10:42:32.036Z,101518.59
2022-09-11T10:43:53.720Z,101514.88
2022-09-11T10:45:07.412Z,101517.19
2022-09-11T10:46:18.363Z,101514.13
2022-09-11T10:47:25.690Z,101517.03
2022-09-11T10:48:27.421Z,101516.19
2022-09-11T10:49:29.091Z,101518.59
2022-09-11T10:50:31.063Z,101518.44
2022-09-11T10:51:35.470Z,101507.66
2022-09-11T10:52:58.908Z,101521.59
2022-09-11T10:54:34.515Z,101526.09
2022-09-11T10:55:40.326Z,101517.31
2022-09-11T10:57:00.444Z,101521.53
2022-09-11T10:58:13.830Z,101520.69
2022-09-11T10:59:22.891Z,101519.19
2022-09-11T11:00:32.291Z,101513.28
2022-09-11T11:01:34.174Z,101514.81
2022-09-11T11:02:44.471Z,101521.44
2022-09-11T11:03:46.592Z,101513.09
2022-09-11T11:04:48.676Z,101519.53
2022-09-11T11:05:56.347Z,101515.34
2022-09-11T11:07:17.185Z,101510.75
2022-09-11T11:09:00.502Z,101515.75
2022-09-11T11:10:02.250Z,101522.66
2022-09-11T11:11:34.779Z,101516.56
2022-09-11T11:12:57.642Z,101518.44
2022-09-11T11:14:22.996Z,101526.66
2022-09-11T11:15:43.374Z,101513.31
2022-09-11T11:17:13.602Z,101520.97
2022-09-11T11:18:20.821Z,101516.41
2022-09-11T11:19:56.443Z,101514.50
2022-09-11T11:21:13.047Z,101508.03
2022-09-11T11:22:39.842Z,101508.91
2022-09-11T11:24:02.408Z,101508.41
2022-09-11T11:25:46.293Z,101512.94
2022-09-11T11:27:04.696Z,101509.34
2022-09-11T11:28:24.536Z,101513.31
2022-09-11T11:29:56.319Z,101515.38
2022-09-11T11:31:16.041Z,101510.59
2022-09-11T11:32:46.889Z,101509.72
2022-09-11T11:34:09.305Z,101510.59
2022-09-11T11:35:35.280Z,101514.78
2022-09-11T11:36:44.222Z,101514.34
2022-09-11T11:37:48.618Z,101505.72
2022-09-11T11:39:02.130Z,101504.88
2022-09-11T11:40:03.892Z,101507.59
2022-09-11T11:41:26.941Z,101495.44
2022-09-11T11:42:39.976Z,101509.28
2022-09-11T11:43:44.802Z,101508.41
2022-09-11T11:44:52.237Z,101493.75
2022-09-11T11:46:09.945Z,101504.22
2022-09-11T11:47:12.906Z,101497.56
2022-09-11T11:48:26.980Z,101490.38
2022-09-11T11:49:43.940Z,101483.22
2022-09-11T11:50:59.515Z,101499.06
2022-09-11T11:52:13.363Z,101486.91
2022-09-11T11:53:24.818Z,101489.25
2022-09-11T11:54:32.970Z,101491.75
2022-09-11T11:56:00.523Z,101479.81
2022-09-11T11:57:20.674Z,101494.75
2022-09-11T11:58:40.459Z,101491.22
2022-09-11T11:59:58.356Z,101490.19
2022-09-11T12:01:04.570Z,101481.09
2022-09-11T12:02:09.383Z,101487.19
2022-09-11T12:03:22.007Z,101487.56
2022-09-11T12:04:26.562Z,101494.31
2022-09-11T12:05:32.964Z,101481.09
2022-09-11T12:06:35.328Z,101486.31
2022-09-11T12:07:39.051Z,101485.69
2022-09-11T12:08:47.833Z,101491.09
2022-09-11T12:09:52.249Z,101485.50
2022-09-11T12:11:06.414Z,101486.31
2022-09-11T12:12:08.485Z,101484.25
2022-09-11T12:13:16.766Z,101479.22
2022-09-11T12:14:29.717Z,101484.25
2022-09-11T12:15:34.429Z,101486.81
2022-09-11T12:16:36.613Z,101490.56
2022-09-11T12:17:40.248Z,101486.31
2022-09-11T12:19:01.623Z,101488.50
2022-09-11T12:20:12.141Z,101493.53
2022-09-11T12:21:22.996Z,101478.28
2022-09-11T12:22:38.569Z,101482.84
2022-09-11T12:24:03.247Z,101475.84
2022-09-11T12:25:31.220Z,101480.06
2022-09-11T12:26:33.379Z,101484.63
2022-09-11T12:27:35.083Z,101484.38
2022-09-11T12:28:37.960Z,101486.44
2022-09-11T12:29:55.526Z,101474.06
2022-09-11T12:31:16.790Z,101473.41
2022-09-11T12:32:25.775Z,101477.91
2022-09-11T12:33:48.578Z,101474.16
2022-09-11T12:34:50.260Z,101472.31
2022-09-11T12:35:53.544Z,101472.22
2022-09-11T12:37:02.279Z,101475.75
2022-09-11T12:38:06.923Z,101475.56
2022-09-11T12:39:37.243Z,101480.63
2022-09-11T12:41:07.394Z,101468.34
2022-09-11T12:42:22.998Z,101467.69
2022-09-11T12:43:34.993Z,101469.38
2022-09-11T12:44:48.619Z,101477.53
2022-09-11T12:45:50.417Z,101471.44
2022-09-11T12:46:55.069Z,101475.56
2022-09-11T12:48:05.094Z,101477.25
2022-09-11T12:49:23.297Z,101474.53
2022-09-11T12:50:28.437Z,101474.34
2022-09-11T12:51:35.440Z,101469.28
2022-09-11T12:52:50.942Z,101478.09
2022-09-11T12:54:00.857Z,101467.16
2022-09-11T12:55:07.777Z,101471.81